Time;durP1;ratioP1;P1;durP2;ratioP2;P2;SDS_P1;SDS_P2;PMS_P1;PMS_P2;Temp;Humidity;BMP_temperature;BMP_pressure;BME280_temperature;BME280_humidity;BME280_pressure;Samples;Min_cycle;Max_cycle;Signal;HPM_P1;HPM_P2
2021/06/20 00:00:57;;;;;;;21.95;7.88;;;;;;;23.70;65.05;96160.69;4981232;28;20046;-66
2021/06/20 00:03:23;;;;;;;15.02;7.03;;;;;;;23.59;65.46;96166.78;4974062;28;20066;-63
2021/06/20 00:06:04;;;;;;;13.90;7.50;;;;;;;23.36;66.39;96162.59;4959956;28;20530;-62
2021/06/20 00:08:29;;;;;;;27.77;8.27;;;;;;;23.07;67.83;96174.97;4964209;28;20046;-63
2021/06/20 00:10:55;;;;;;;18.77;7.38;;;;;;;23.06;68.13;96176.19;4983333;28;20035;-63
2021/06/20 00:13:20;;;;;;;15.23;6.97;;;;;;;23.01;68.08;96185.16;4977074;28;29520;-65
2021/06/20 00:15:48;;;;;;;21.45;7.80;;;;;;;22.97;68.64;96182.50;4982807;28;20041;-65
2021/06/20 00:18:15;;;;;;;15.73;7.60;;;;;;;22.97;68.65;96171.31;4961166;28;20052;-63
2021/06/20 00:20:46;;;;;;;19.17;8.30;;;;;;;22.64;70.20;96173.88;4982759;28;20046;-63
2021/06/20 00:23:12;;;;;;;17.08;7.93;;;;;;;22.33;71.79;96175.47;4976964;28;20049;-63
2021/06/20 00:25:38;;;;;;;15.15;7.25;;;;;;;22.40;72.05;96184.78;4982964;28;20038;-64
2021/06/20 00:28:05;;;;;;;16.05;6.85;;;;;;;22.68;70.97;96186.44;4977825;28;20041;-64
2021/06/20 00:30:32;;;;;;;16.80;7.38;;;;;;;22.80;70.24;96181.22;4981795;28;20042;-64
2021/06/20 00:32:58;;;;;;;18.58;8.02;;;;;;;22.80;70.12;96173.63;4982508;28;20169;-64
2021/06/20 00:35:24;;;;;;;17.48;7.97;;;;;;;22.71;70.53;96168.78;4972329;28;20704;-64
2021/06/20 00:37:50;;;;;;;28.02;8.07;;;;;;;22.02;72.96;96164.28;4981311;28;20053;-65
2021/06/20 00:40:18;;;;;;;24.48;8.38;;;;;;;21.32;77.07;96163.56;4974495;28;20042;-64
2021/06/20 00:42:44;;;;;;;24.83;8.30;;;;;;;21.26;77.47;96168.94;4977034;28;20046;-64
2021/06/20 00:45:11;;;;;;;18.90;8.10;;;;;;;21.43;77.14;96155.63;4976183;28;20449;-65
2021/06/20 00:47:36;;;;;;;21.73;7.53;;;;;;;21.69;76.27;96158.31;4981335;28;20137;-65
2021/06/20 00:50:06;;;;;;;19.08;7.32;;;;;;;21.82;75.38;96153.44;4979946;28;20125;-66
2021/06/20 00:52:32;;;;;;;23.05;8.23;;;;;;;21.56;76.40;96156.38;4982022;28;20050;-66
2021/06/20 00:54:57;;;;;;;20.35;8.43;;;;;;;21.32;78.02;96172.72;4957461;28;20475;-66
2021/06/20 00:57:23;;;;;;;21.27;8.30;;;;;;;21.19;78.70;96169.16;4971122;28;20113;-66
2021/06/20 00:59:49;;;;;;;19.75;8.30;;;;;;;21.20;78.88;96174.28;4982641;28;20129;-65
2021/06/20 01:02:17;;;;;;;15.85;7.68;;;;;;;21.33;78.49;96168.69;4974377;28;20081;-66
2021/06/20 01:04:44;;;;;;;23.65;7.63;;;;;;;21.62;77.33;96161.34;4979977;28;20061;-66
2021/06/20 01:07:14;;;;;;;22.50;7.90;;;;;;;21.84;76.10;96156.56;4972504;28;20154;-66
2021/06/20 01:09:39;;;;;;;24.65;9.38;;;;;;;21.62;76.78;96150.97;4979558;28;20034;-66
2021/06/20 01:12:05;;;;;;;22.55;8.82;;;;;;;21.28;78.63;96157.34;4973791;28;20049;-65
2021/06/20 01:14:33;;;;;;;20.67;8.80;;;;;;;21.36;78.56;96165.00;4979972;28;20053;-67
2021/06/20 01:16:58;;;;;;;29.70;8.07;;;;;;;21.55;77.77;96154.03;4980058;28;20499;-66
2021/06/20 01:19:24;;;;;;;37.35;9.35;;;;;;;21.40;78.49;96159.31;4975498;28;20258;-66
2021/06/20 01:21:49;;;;;;;27.88;8.32;;;;;;;21.56;78.28;96153.56;4980167;28;20042;-67
2021/06/20 01:24:15;;;;;;;22.25;7.88;;;;;;;21.44;78.46;96156.41;4973615;28;20059;-66
2021/06/20 01:26:41;;;;;;;24.30;7.43;;;;;;;21.39;78.90;96168.88;4979855;28;20125;-66
2021/06/20 01:29:09;;;;;;;26.73;8.27;;;;;;;21.44;79.04;96167.53;4974614;28;20454;-66
2021/06/20 01:31:35;;;;;;;27.92;9.23;;;;;;;21.22;79.74;96182.19;4969414;28;20047;-66
2021/06/20 01:34:02;;;;;;;36.00;8.70;;;;;;;21.11;80.35;96192.94;4964753;28;20065;-65
2021/06/20 01:36:30;;;;;;;26.15;8.02;;;;;;;21.15;80.49;96193.59;4990564;28;20078;-66
2021/06/20 01:38:55;;;;;;;34.20;9.88;;;;;;;21.11;80.54;96193.69;5000306;28;20041;-65
2021/06/20 01:41:21;;;;;;;27.77;9.93;;;;;;;20.91;81.45;96193.19;5006562;28;22135;-65
2021/06/20 01:43:46;;;;;;;26.83;9.50;;;;;;;20.98;81.53;96198.53;4997753;28;20046;-65
2021/06/20 01:46:12;;;;;;;25.52;8.45;;;;;;;20.84;82.58;96191.41;4997539;28;20483;-65
2021/06/20 01:48:37;;;;;;;34.58;8.73;;;;;;;20.69;83.69;96205.00;5003601;28;20100;-66
2021/06/20 01:51:07;;;;;;;25.60;9.20;;;;;;;20.86;83.19;96208.44;5001158;28;20053;-65
2021/06/20 01:53:32;;;;;;;24.95;8.50;;;;;;;21.10;82.40;96210.84;5002702;28;20113;-64
2021/06/20 01:55:58;;;;;;;22.85;8.93;;;;;;;21.24;81.64;96221.50;5003148;28;20042;-65
2021/06/20 01:58:23;;;;;;;35.33;10.35;;;;;;;21.10;82.33;96225.53;4978529;28;20488;-66
2021/06/20 02:00:51;;;;;;;27.98;7.90;;;;;;;21.01;82.79;96233.81;4983689;28;20430;-65
2021/06/20 02:03:22;;;;;;;29.33;8.95;;;;;;;20.86;83.99;96255.75;4978952;28;20069;-65
2021/06/20 02:05:48;;;;;;;26.92;8.70;;;;;;;20.74;84.89;96242.63;4966646;28;20441;-66
2021/06/20 02:08:18;;;;;;;26.33;9.07;;;;;;;21.03;83.93;96233.34;4975286;28;20137;-65
2021/06/20 02:10:47;;;;;;;29.13;9.30;;;;;;;21.11;83.55;96240.25;4984620;28;20407;-65
2021/06/20 02:13:12;;;;;;;21.70;8.73;;;;;;;21.23;83.27;96247.81;4961226;28;20046;-63
2021/06/20 02:15:38;;;;;;;23.40;8.52;;;;;;;21.27;82.85;96262.41;4992050;28;20124;-65
2021/06/20 02:18:04;;;;;;;20.80;8.38;;;;;;;21.27;82.79;96270.75;5000413;28;20046;-66
2021/06/20 02:20:30;;;;;;;19.77;9.18;;;;;;;21.37;82.62;96271.63;4993602;28;20042;-66
2021/06/20 02:22:56;;;;;;;18.95;8.27;;;;;;;21.49;82.59;96259.69;4981897;28;20694;-65
2021/06/20 02:25:23;;;;;;;24.80;9.00;;;;;;;21.57;82.29;96258.25;4977790;28;20141;-65
2021/06/20 02:27:51;;;;;;;22.45;8.55;;;;;;;21.55;83.16;96251.53;4983131;28;20050;-66
2021/06/20 02:30:18;;;;;;;22.25;10.73;;;;;;;21.50;83.50;96250.13;4977791;28;20070;-65
2021/06/20 02:32:45;;;;;;;26.25;10.95;;;;;;;21.46;83.98;96248.69;4982533;28;20049;-67
2021/06/20 02:35:13;;;;;;;19.48;9.40;;;;;;;21.34;84.94;96247.47;4977762;28;20042;-66
2021/06/20 02:37:39;;;;;;;19.83;10.30;;;;;;;21.30;85.06;96255.94;4981861;28;20042;-66
2021/06/20 02:40:07;;;;;;;19.50;10.02;;;;;;;21.30;85.03;96269.88;4976106;28;20045;-64
2021/06/20 02:42:33;;;;;;;19.08;10.60;;;;;;;21.16;85.93;96279.47;4982353;28;20189;-67
2021/06/20 02:44:59;;;;;;;22.98;11.23;;;;;;;21.19;86.12;96284.16;4982570;28;20537;-67
2021/06/20 02:47:24;;;;;;;24.05;9.75;;;;;;;21.37;85.95;96274.41;4977433;28;20047;-67
2021/06/20 02:49:50;;;;;;;18.40;10.07;;;;;;;21.39;86.09;96278.31;4964407;28;20515;-66
2021/06/20 02:52:16;;;;;;;34.33;11.27;;;;;;;21.21;87.06;96289.25;4976493;28;20069;-66
2021/06/20 02:54:49;;;;;;;26.85;12.98;;;;;;;21.09;88.01;96296.41;4982114;28;20050;-67
2021/06/20 02:57:23;;;;;;;21.52;10.25;;;;;;;21.03;88.53;96291.81;4977119;28;20050;-65
2021/06/20 02:59:50;;;;;;;26.88;10.65;;;;;;;21.05;88.83;96298.53;4982525;28;20038;-65
2021/06/20 03:02:16;;;;;;;21.05;10.75;;;;;;;21.08;88.70;96310.75;4975752;28;20050;-65
2021/06/20 03:04:42;;;;;;;26.75;11.43;;;;;;;21.14;88.20;96315.34;4962628;28;20038;-65
2021/06/20 03:07:08;;;;;;;22.27;10.80;;;;;;;21.16;88.01;96324.00;4977413;28;20034;-66
2021/06/20 03:09:35;;;;;;;21.45;10.15;;;;;;;21.21;87.27;96336.59;4981470;28;20398;-64
2021/06/20 03:12:06;;;;;;;37.95;10.77;;;;;;;21.36;86.07;96336.94;4964682;28;20053;-64
2021/06/20 03:14:32;;;;;;;25.75;10.52;;;;;;;21.57;84.98;96349.41;4981043;28;20388;-66
2021/06/20 03:16:58;;;;;;;22.92;10.05;;;;;;;21.68;84.06;96349.84;4981370;28;20034;-66
2021/06/20 03:19:24;;;;;;;24.80;10.30;;;;;;;21.77;82.55;96355.50;4958055;28;20211;-66
2021/06/20 03:21:50;;;;;;;27.63;10.35;;;;;;;21.84;81.99;96356.47;4981925;28;20050;-66
2021/06/20 03:24:15;;;;;;;27.90;10.35;;;;;;;22.03;80.58;96355.41;4974927;28;20041;-66
2021/06/20 03:26:43;;;;;;;24.73;10.23;;;;;;;22.03;80.18;96358.22;4964662;28;20042;-66
2021/06/20 03:29:09;;;;;;;20.73;8.32;;;;;;;22.03;80.06;96347.06;4975737;28;20045;-67
2021/06/20 03:31:34;;;;;;;29.88;8.77;;;;;;;22.21;78.78;96354.81;4962939;28;20060;-66
2021/06/20 03:34:01;;;;;;;30.20;8.52;;;;;;;22.14;78.88;96347.47;4979682;28;20415;-66
2021/06/20 03:36:28;;;;;;;25.75;8.00;;;;;;;22.07;78.75;96347.72;4977215;28;20054;-66
2021/06/20 03:38:54;;;;;;;28.08;8.27;;;;;;;22.15;77.85;96348.25;4980716;28;20050;-65
2021/06/20 03:41:20;;;;;;;26.70;8.60;;;;;;;22.18;76.89;96343.78;4975585;28;20038;-65
2021/06/20 03:43:46;;;;;;;23.65;7.13;;;;;;;22.23;77.90;96351.56;4982589;28;20482;-65
2021/06/20 03:46:11;;;;;;;23.00;7.75;;;;;;;22.17;77.89;96347.81;4959467;28;20173;-66
2021/06/20 03:48:38;;;;;;;21.85;7.40;;;;;;;22.20;75.89;96358.84;4982123;28;20043;-66
2021/06/20 03:51:04;;;;;;;30.33;6.65;;;;;;;22.21;75.18;96367.97;4992132;28;20054;-66
2021/06/20 03:53:30;;;;;;;30.02;7.07;;;;;;;22.13;74.56;96376.59;4987467;28;20046;-67
2021/06/20 03:55:56;;;;;;;18.80;5.63;;;;;;;22.11;74.27;96378.25;4983136;28;20049;-66
2021/06/20 03:58:22;;;;;;;25.40;5.45;;;;;;;22.18;73.49;96366.84;4975319;28;20518;-66
2021/06/20 04:00:47;;;;;;;19.90;5.32;;;;;;;22.12;72.91;96372.22;4981514;28;20487;-67
2021/06/20 04:03:13;;;;;;;23.98;5.38;;;;;;;22.01;73.13;96377.41;4975845;28;20129;-65
2021/06/20 04:05:38;;;;;;;18.75;5.65;;;;;;;21.99;72.53;96388.25;4963486;28;20395;-65
2021/06/20 04:08:04;;;;;;;25.75;5.75;;;;;;;22.01;72.51;96385.00;4975055;28;20046;-65
2021/06/20 04:10:29;;;;;;;20.88;5.18;;;;;;;22.17;71.83;96384.84;4980821;28;20133;-65
2021/06/20 04:12:55;;;;;;;22.02;4.95;;;;;;;22.18;71.11;96383.59;4980791;28;20120;-65
2021/06/20 04:15:21;;;;;;;25.67;5.18;;;;;;;22.10;70.78;96383.06;4975662;28;20100;-63
2021/06/20 04:17:46;;;;;;;12.88;3.85;;;;;;;22.16;69.77;96366.53;4981070;28;20042;-64
2021/06/20 04:20:12;;;;;;;22.00;3.95;;;;;;;22.06;68.64;96360.09;4975744;28;20053;-66
2021/06/20 04:22:39;;;;;;;20.58;3.70;;;;;;;22.13;68.28;96361.88;4980002;28;20034;-66
2021/06/20 04:25:05;;;;;;;15.93;3.47;;;;;;;22.17;68.06;96365.31;4959510;28;20403;-65
2021/06/20 04:27:31;;;;;;;20.42;4.00;;;;;;;22.08;68.15;96359.66;4980750;28;20077;-66
2021/06/20 04:29:56;;;;;;;14.82;3.50;;;;;;;22.10;68.05;96362.78;4962366;28;20775;-66
2021/06/20 04:32:21;;;;;;;19.25;3.75;;;;;;;22.04;68.61;96387.66;4975465;28;20538;-67
2021/06/20 04:34:47;;;;;;;12.18;3.45;;;;;;;22.10;68.13;96376.72;4963029;28;20533;-65
2021/06/20 04:37:13;;;;;;;15.70;3.28;;;;;;;21.98;68.10;96381.09;4974513;28;20054;-67
2021/06/20 04:39:38;;;;;;;14.35;3.25;;;;;;;22.00;67.54;96389.00;4979889;28;20411;-67
2021/06/20 04:42:06;;;;;;;10.52;2.20;;;;;;;21.95;67.80;96388.34;4959390;28;20062;-67
2021/06/20 04:47:15;;;;;;;10.13;2.13;;;;;;;21.79;67.17;96379.34;4975709;28;20104;-67
2021/06/20 04:49:41;;;;;;;7.38;1.98;;;;;;;21.74;67.63;96386.28;4980708;28;20117;-66
2021/06/20 04:52:11;;;;;;;9.88;2.05;;;;;;;21.85;65.55;96378.34;4956928;28;20038;-66
2021/06/20 04:54:49;;;;;;;10.45;1.67;;;;;;;21.73;66.64;96379.13;4962016;28;20089;-66
2021/06/20 04:57:17;;;;;;;12.38;2.33;;;;;;;21.69;66.54;96381.28;4973768;28;20511;-66
2021/06/20 04:59:42;;;;;;;6.80;2.10;;;;;;;21.67;66.84;96372.59;4979300;28;20042;-66
2021/06/20 05:02:07;;;;;;;10.15;1.85;;;;;;;21.84;66.50;96376.78;4972037;28;20612;-66
2021/06/20 05:04:34;;;;;;;10.80;2.05;;;;;;;22.10;65.39;96380.28;4981759;28;20112;-65
2021/06/20 05:07:01;;;;;;;11.30;1.55;;;;;;;22.11;65.52;96378.25;4977973;28;20403;-65
2021/06/20 05:09:26;;;;;;;10.52;1.65;;;;;;;21.92;66.06;96382.91;4974336;28;20074;-65
2021/06/20 05:11:51;;;;;;;6.78;1.52;;;;;;;22.01;65.80;96393.38;4979874;28;20089;-65
2021/06/20 05:14:17;;;;;;;8.80;1.55;;;;;;;22.06;65.95;96395.59;4973155;28;20571;-66
2021/06/20 05:16:42;;;;;;;7.55;1.92;;;;;;;22.03;66.38;96402.06;4980880;28;20443;-65
2021/06/20 05:19:07;;;;;;;7.45;1.85;;;;;;;22.11;66.08;96404.16;4973828;28;20043;-64
2021/06/20 05:21:34;;;;;;;7.78;1.52;;;;;;;21.95;66.43;96407.88;4962985;28;20056;-64
2021/06/20 05:24:03;;;;;;;8.13;1.92;;;;;;;22.02;66.07;96403.28;4982369;28;20129;-64
2021/06/20 05:26:29;;;;;;;7.00;1.65;;;;;;;21.86;65.80;96393.84;4962033;28;20046;-65
2021/06/20 05:28:54;;;;;;;6.43;1.40;;;;;;;21.84;65.67;96389.94;4981922;28;20053;-65
2021/06/20 05:31:20;;;;;;;9.75;1.90;;;;;;;21.95;65.57;96387.59;5001048;23;20096;-63
2021/06/20 05:33:45;;;;;;;24.52;2.53;;;;;;;22.04;64.68;96400.81;4992997;28;20053;-63
2021/06/20 05:36:10;;;;;;;9.88;1.60;;;;;;;22.09;65.11;96406.63;4996323;28;20074;-65
2021/06/20 05:38:36;;;;;;;7.57;1.92;;;;;;;21.63;66.66;96402.59;4986122;28;20049;-64
2021/06/20 05:41:02;;;;;;;7.68;2.22;;;;;;;21.24;69.88;96422.03;4980445;28;20042;-65
2021/06/20 05:43:27;;;;;;;10.73;1.70;;;;;;;21.12;70.05;96436.72;4999544;28;20045;-64
2021/06/20 05:45:53;;;;;;;9.68;1.65;;;;;;;21.03;69.41;96433.81;5001591;28;20159;-64
2021/06/20 05:48:18;;;;;;;10.48;1.88;;;;;;;20.80;71.13;96428.09;4999187;28;20125;-64
2021/06/20 05:50:43;;;;;;;9.70;1.85;;;;;;;20.85;72.19;96431.53;5003157;28;20084;-63
2021/06/20 05:53:09;;;;;;;8.35;1.50;;;;;;;21.17;71.67;96436.94;4999180;28;20045;-65
2021/06/20 05:55:34;;;;;;;9.52;1.67;;;;;;;21.74;68.92;96420.50;5001794;28;20506;-64
2021/06/20 05:57:59;;;;;;;8.32;1.40;;;;;;;22.05;67.21;96419.88;4976602;28;20038;-65
2021/06/20 06:00:25;;;;;;;9.80;1.98;;;;;;;22.15;68.13;96421.53;4984294;28;20466;-65
2021/06/20 06:02:50;;;;;;;10.38;2.08;;;;;;;21.31;70.80;96421.03;5003340;28;20038;-66
2021/06/20 06:05:16;;;;;;;14.65;2.10;;;;;;;20.91;72.37;96415.88;4981908;28;20101;-65
2021/06/20 06:07:41;;;;;;;9.43;1.90;;;;;;;20.77;74.39;96411.50;4974081;28;20509;-64
2021/06/20 06:10:07;;;;;;;11.32;2.03;;;;;;;20.71;74.72;96411.25;5005511;28;20049;-65
2021/06/20 06:12:33;;;;;;;5.25;1.95;;;;;;;20.83;73.11;96406.16;5008541;28;20065;-65
2021/06/20 06:14:58;;;;;;;9.68;2.50;;;;;;;20.85;72.45;96401.72;5002825;28;20034;-64
2021/06/20 06:17:24;;;;;;;9.07;1.70;;;;;;;20.93;72.84;96403.06;4997048;28;20052;-64
2021/06/20 06:19:52;;;;;;;11.35;2.30;;;;;;;21.14;72.21;96403.63;5013898;28;20038;-65
2021/06/20 06:22:19;;;;;;;10.60;2.28;;;;;;;21.27;71.48;96412.03;5015641;28;20045;-64
2021/06/20 06:24:45;;;;;;;9.32;2.03;;;;;;;21.34;69.95;96417.38;5008474;28;20107;-64
2021/06/20 06:27:11;;;;;;;12.20;2.50;;;;;;;21.77;68.75;96422.41;5013634;28;20045;-64
2021/06/20 06:29:37;;;;;;;14.40;2.20;;;;;;;22.08;65.85;96419.00;5014211;28;20046;-64
2021/06/20 06:32:03;;;;;;;9.27;1.65;;;;;;;22.12;64.05;96427.25;5007356;28;20117;-63
2021/06/20 06:34:28;;;;;;;8.20;2.33;;;;;;;22.86;62.83;96423.06;4992642;28;20054;-66
2021/06/20 06:36:54;;;;;;;7.88;2.10;;;;;;;23.01;61.43;96428.09;4991090;28;20057;-64
2021/06/20 06:39:20;;;;;;;13.68;2.05;;;;;;;23.50;59.97;96435.06;5000205;28;20034;-64
2021/06/20 06:41:46;;;;;;;10.80;2.30;;;;;;;24.44;58.37;96430.03;4987081;28;20049;-65
2021/06/20 06:44:11;;;;;;;6.60;1.98;;;;;;;25.50;55.53;96417.31;4998225;28;20042;-66
2021/06/20 06:46:36;;;;;;;10.07;1.38;;;;;;;26.70;51.02;96418.63;5004792;28;20049;-66
2021/06/20 06:49:02;;;;;;;7.90;1.55;;;;;;;26.94;49.91;96424.19;5002568;28;20049;-64
2021/06/20 06:51:27;;;;;;;6.63;1.65;;;;;;;26.74;49.29;96432.47;4999162;28;20069;-64
2021/06/20 06:53:53;;;;;;;9.68;1.40;;;;;;;26.32;50.20;96434.94;5002127;28;20133;-65
2021/06/20 06:56:18;;;;;;;10.20;2.17;;;;;;;26.18;51.05;96432.09;4997248;28;20390;-66
2021/06/20 06:58:44;;;;;;;4.95;1.50;;;;;;;24.86;54.63;96421.03;5002571;28;20042;-64
2021/06/20 07:01:09;;;;;;;9.30;1.63;;;;;;;24.08;57.61;96425.19;4997130;28;20050;-65
2021/06/20 07:03:35;;;;;;;10.77;1.33;;;;;;;23.59;59.80;96423.94;5001197;28;20078;-63
2021/06/20 07:06:00;;;;;;;11.07;1.90;;;;;;;22.98;62.30;96410.25;5001822;28;20390;-64
2021/06/20 07:08:28;;;;;;;10.82;1.98;;;;;;;23.25;62.35;96392.91;4998048;28;20041;-64
2021/06/20 07:10:54;;;;;;;11.77;1.92;;;;;;;23.53;60.44;96383.84;5002518;28;20042;-64
2021/06/20 07:13:20;;;;;;;8.55;1.63;;;;;;;23.38;60.05;96384.41;4997660;28;20555;-65
2021/06/20 07:15:45;;;;;;;7.63;2.28;;;;;;;23.51;60.82;96389.88;5001139;28;20552;-64
2021/06/20 07:18:11;;;;;;;6.43;2.38;;;;;;;23.12;62.91;96386.63;4996120;28;20049;-64
2021/06/20 07:20:36;;;;;;;11.73;2.97;;;;;;;22.90;64.38;96381.03;5009999;28;20080;-64
2021/06/20 07:23:02;;;;;;;16.27;2.05;;;;;;;22.81;65.60;96384.53;5009644;28;20391;-64
2021/06/20 07:25:27;;;;;;;9.38;1.90;;;;;;;22.93;64.08;96394.09;5005003;28;20049;-64
2021/06/20 07:27:52;;;;;;;14.60;2.40;;;;;;;22.93;64.04;96393.31;5000686;28;20053;-62
2021/06/20 07:30:20;;;;;;;7.97;2.35;;;;;;;23.11;63.16;96387.88;4995329;28;20042;-65
2021/06/20 07:32:46;;;;;;;11.63;2.17;;;;;;;23.24;63.83;96391.31;5001041;28;20045;-64
2021/06/20 07:35:13;;;;;;;17.27;2.70;;;;;;;23.79;61.56;96395.56;4987377;28;20042;-63
2021/06/20 07:37:38;;;;;;;13.02;2.13;;;;;;;24.11;60.38;96396.28;5001845;28;20092;-66
2021/06/20 07:40:08;;;;;;;8.52;2.03;;;;;;;24.45;59.23;96406.38;4997057;28;20434;-62
2021/06/20 07:42:33;;;;;;;11.57;2.42;;;;;;;24.58;58.57;96407.06;5002079;28;20049;-62
2021/06/20 07:44:58;;;;;;;14.05;2.28;;;;;;;24.72;58.42;96402.06;5001619;28;20042;-64
2021/06/20 07:47:24;;;;;;;13.68;2.13;;;;;;;24.46;59.10;96396.75;4996195;28;20179;-62
2021/06/20 07:49:49;;;;;;;16.58;2.67;;;;;;;24.52;59.25;96408.09;5000751;28;20050;-65
2021/06/20 07:52:15;;;;;;;12.30;2.08;;;;;;;25.46;55.42;96408.28;4997026;28;20042;-65
2021/06/20 07:54:42;;;;;;;8.40;1.80;;;;;;;25.92;54.92;96396.84;5001764;28;20092;-64
2021/06/20 07:57:14;;;;;;;12.15;3.13;;;;;;;26.54;52.86;96399.38;4997255;28;20115;-64
2021/06/20 07:59:39;;;;;;;13.00;2.60;;;;;;;26.64;51.49;96396.03;5002536;28;20085;-65
2021/06/20 08:02:05;;;;;;;7.97;1.77;;;;;;;26.80;51.58;96380.75;4995630;28;20048;-64
2021/06/20 08:04:31;;;;;;;13.90;2.28;;;;;;;26.39;52.17;96388.13;4999645;28;20042;-64
2021/06/20 08:06:56;;;;;;;10.43;2.03;;;;;;;26.78;51.02;96388.13;4984511;28;20044;-64
2021/06/20 08:09:22;;;;;;;11.40;2.10;;;;;;;26.61;52.10;96382.97;4999894;28;20668;-64
2021/06/20 08:11:47;;;;;;;6.38;1.95;;;;;;;26.54;52.01;96382.53;4984531;28;20046;-64
2021/06/20 08:14:12;;;;;;;9.68;1.88;;;;;;;26.43;52.40;96381.06;4999566;28;20041;-66
2021/06/20 08:16:38;;;;;;;5.88;1.77;;;;;;;26.22;52.91;96374.53;5007282;28;20042;-65
2021/06/20 08:19:03;;;;;;;10.88;2.38;;;;;;;26.23;52.57;96362.03;4999919;28;20498;-63
2021/06/20 08:21:29;;;;;;;8.55;1.77;;;;;;;26.09;54.14;96360.75;5000464;28;20116;-65
2021/06/20 08:23:55;;;;;;;10.93;2.40;;;;;;;26.00;54.16;96366.44;5000469;28;20041;-63
2021/06/20 08:26:21;;;;;;;13.77;2.45;;;;;;;25.87;54.51;96357.44;4993984;28;20092;-65
2021/06/20 08:28:46;;;;;;;10.80;2.95;;;;;;;25.89;55.24;96355.72;5001290;28;20521;-62
2021/06/20 08:31:11;;;;;;;12.40;2.83;;;;;;;25.43;56.14;96341.97;4995791;28;20522;-65
2021/06/20 08:33:37;;;;;;;14.82;2.28;;;;;;;25.07;56.33;96348.47;4999873;28;20099;-64
2021/06/20 08:36:03;;;;;;;8.25;2.35;;;;;;;24.00;59.96;96335.19;5011869;28;20034;-60
2021/06/20 08:38:28;;;;;;;15.95;2.63;;;;;;;23.97;60.31;96333.34;5006062;28;20069;-65
2021/06/20 08:40:55;;;;;;;11.13;2.78;;;;;;;23.48;63.00;96323.75;5015289;28;20053;-63
2021/06/20 08:43:22;;;;;;;13.77;2.67;;;;;;;23.55;61.65;96309.47;5005423;28;20106;-64
2021/06/20 08:45:55;;;;;;;15.77;3.05;;;;;;;23.31;62.09;96309.25;5000854;28;20042;-63
2021/06/20 08:48:21;;;;;;;11.50;2.50;;;;;;;23.61;62.33;96307.63;4995798;28;20042;-64
2021/06/20 08:50:49;;;;;;;8.35;2.40;;;;;;;23.94;61.75;96295.09;4983371;28;20529;-62
2021/06/20 08:53:16;;;;;;;16.70;2.50;;;;;;;24.01;61.62;96298.34;4998011;28;20053;-62
2021/06/20 08:55:44;;;;;;;16.65;3.53;;;;;;;24.29;61.89;96300.38;5004187;28;20050;-64
2021/06/20 08:58:27;;;;;;;13.73;2.60;;;;;;;24.32;60.31;96294.59;5002140;28;20463;-65
2021/06/20 09:00:57;;;;;;;14.50;2.78;;;;;;;24.61;60.72;96301.75;5006195;28;20041;-63
2021/06/20 09:03:23;;;;;;;16.50;2.85;;;;;;;24.15;60.54;96302.56;4980358;28;20414;-63
2021/06/20 09:06:17;;;;;;;11.73;2.55;;;;;;;23.88;61.22;96308.13;4999508;28;20076;-64
2021/06/20 09:08:53;;;;;;;18.45;2.67;;;;;;;24.49;59.42;96300.66;5009003;28;20061;-65
2021/06/20 09:11:26;;;;;;;11.30;2.58;;;;;;;24.16;61.24;96309.69;5000004;28;20372;-66
2021/06/20 09:14:10;;;;;;;11.95;2.90;;;;;;;24.59;60.59;96296.59;5004483;28;20069;-63
2021/06/20 09:16:46;;;;;;;16.48;3.03;;;;;;;24.78;60.52;96288.19;5003175;28;20049;-61
2021/06/20 09:19:11;;;;;;;12.25;3.03;;;;;;;24.40;60.98;96283.88;4999262;28;20049;-64
2021/06/20 09:21:36;;;;;;;10.13;2.88;;;;;;;24.36;61.91;96270.06;5004613;28;20394;-65
2021/06/20 09:24:02;;;;;;;9.82;3.40;;;;;;;23.90;63.22;96264.50;5012753;28;20099;-62
2021/06/20 09:26:40;;;;;;;15.02;3.42;;;;;;;23.97;63.31;96266.97;5011823;28;20085;-64
2021/06/20 09:29:06;;;;;;;14.73;3.85;;;;;;;24.35;62.00;96274.09;5002745;28;20046;-61
2021/06/20 09:31:53;;;;;;;10.98;2.95;;;;;;;24.75;60.40;96275.13;5004040;28;20042;-64
2021/06/20 09:34:20;;;;;;;16.65;3.20;;;;;;;24.38;61.70;96280.75;4994922;28;20042;-64
2021/06/20 09:36:46;;;;;;;14.18;3.15;;;;;;;25.00;60.69;96279.53;5006269;28;20128;-63
2021/06/20 09:39:25;;;;;;;19.95;3.25;;;;;;;25.21;60.49;96268.53;5002136;28;20041;-63
2021/06/20 09:42:03;;;;;;;12.37;3.13;;;;;;;25.76;59.80;96271.03;5006732;28;20057;-64
2021/06/20 09:44:50;;;;;;;21.67;3.30;;;;;;;26.09;57.05;96267.34;4999542;28;20605;-63
2021/06/20 09:47:18;;;;;;;18.55;3.17;;;;;;;26.21;56.38;96273.97;4983547;28;20088;-63
2021/06/20 09:49:47;;;;;;;13.10;3.60;;;;;;;25.90;56.79;96275.13;5002328;28;20045;-64
2021/06/20 09:52:13;;;;;;;11.32;2.90;;;;;;;26.82;55.33;96273.53;5000858;28;20434;-62
2021/06/20 09:54:45;;;;;;;18.73;2.97;;;;;;;26.55;56.43;96271.78;4996037;28;20498;-63
2021/06/20 09:57:16;;;;;;;17.33;3.80;;;;;;;26.39;54.71;96276.59;4997262;28;20437;-63
2021/06/20 09:59:53;;;;;;;20.80;3.90;;;;;;;27.02;53.07;96272.81;5001230;28;20038;-64
2021/06/20 10:02:24;;;;;;;19.30;3.80;;;;;;;27.68;50.56;96268.66;4997115;28;20038;-63
2021/06/20 10:04:50;;;;;;;16.35;2.95;;;;;;;28.09;50.36;96267.88;5005378;28;20136;-64
2021/06/20 10:07:15;;;;;;;20.73;3.65;;;;;;;28.03;50.87;96262.19;4997507;28;20134;-66
2021/06/20 10:09:41;;;;;;;21.35;3.92;;;;;;;28.16;51.01;96259.81;5002302;28;20069;-63
2021/06/20 10:12:07;;;;;;;13.80;3.35;;;;;;;28.17;50.21;96258.53;5003778;28;20042;-61
2021/06/20 10:14:33;;;;;;;12.82;3.25;;;;;;;28.94;47.82;96250.53;5003227;28;20081;-62
2021/06/20 10:17:05;;;;;;;13.70;3.13;;;;;;;28.27;49.77;96244.28;4985503;28;20042;-65
2021/06/20 10:19:31;;;;;;;22.48;4.18;;;;;;;27.42;53.55;96249.69;5002443;28;20576;-64
2021/06/20 10:22:08;;;;;;;20.77;4.72;;;;;;;26.19;54.03;96237.19;4999884;28;20046;-65
2021/06/20 10:24:52;;;;;;;17.88;4.72;;;;;;;26.08;55.21;96230.09;4997472;28;20042;-63
2021/06/20 10:27:46;;;;;;;17.90;4.32;;;;;;;26.37;55.70;96237.00;4973905;28;20041;-64
2021/06/20 10:30:17;;;;;;;22.10;4.43;;;;;;;26.21;54.95;96238.25;4987979;28;20030;-63
2021/06/20 10:32:45;;;;;;;19.45;3.83;;;;;;;26.10;53.79;96232.44;5001845;28;20044;-64
2021/06/20 10:35:28;;;;;;;24.52;3.67;;;;;;;25.69;56.42;96224.47;4994225;28;20049;-63
2021/06/20 10:37:54;;;;;;;30.02;4.32;;;;;;;25.73;55.45;96213.88;5000874;28;20046;-62
2021/06/20 10:40:23;;;;;;;20.33;3.40;;;;;;;25.49;56.06;96205.47;4997135;28;20046;-62
2021/06/20 10:42:50;;;;;;;14.55;4.07;;;;;;;25.82;57.14;96192.59;5005066;28;20038;-63
2021/06/20 10:45:34;;;;;;;22.55;4.47;;;;;;;26.07;55.61;96197.72;5015059;28;20038;-61
2021/06/20 10:48:20;;;;;;;25.80;4.30;;;;;;;26.31;54.72;96191.22;5003594;28;20434;-64
2021/06/20 10:50:57;;;;;;;28.55;4.30;;;;;;;26.55;54.29;96179.09;4985696;28;20044;-65
2021/06/20 10:53:24;;;;;;;25.08;4.30;;;;;;;27.12;54.01;96173.06;4998299;28;20128;-65
2021/06/20 10:55:59;;;;;;;25.13;4.85;;;;;;;27.14;53.83;96172.59;5001267;28;20042;-64
2021/06/20 10:58:34;;;;;;;26.00;4.95;;;;;;;27.76;50.32;96167.72;4993125;28;20048;-64
2021/06/20 11:01:14;;;;;;;20.23;4.10;;;;;;;28.09;49.51;96167.34;4996433;28;20064;-64
2021/06/20 11:03:45;;;;;;;18.25;3.78;;;;;;;28.02;51.78;96174.19;5001286;28;20104;-63
2021/06/20 11:06:14;;;;;;;29.65;4.72;;;;;;;28.04;50.90;96165.25;4996665;28;20073;-64
2021/06/20 11:09:05;;;;;;;18.83;4.00;;;;;;;27.50;49.91;96159.28;5001068;28;20046;-64
2021/06/20 11:11:51;;;;;;;26.13;5.10;;;;;;;27.26;50.30;96163.03;5004337;28;20034;-64
2021/06/20 11:14:18;;;;;;;26.83;4.38;;;;;;;27.20;49.77;96162.94;4991367;28;21022;-64
2021/06/20 11:16:53;;;;;;;30.05;4.68;;;;;;;27.20;49.98;96156.56;5004032;28;20379;-65
2021/06/20 11:19:26;;;;;;;21.05;4.72;;;;;;;27.25;48.04;96151.00;4996253;28;20045;-63
2021/06/20 11:22:06;;;;;;;19.45;4.18;;;;;;;27.52;44.86;96139.88;5000873;28;20038;-63
2021/06/20 11:24:33;;;;;;;35.60;5.30;;;;;;;27.67;44.91;96143.34;4999770;28;20049;-64
2021/06/20 11:27:00;;;;;;;30.88;4.43;;;;;;;28.07;44.93;96143.75;5001867;28;20042;-63
2021/06/20 11:29:39;;;;;;;22.75;3.88;;;;;;;27.84;45.73;96144.28;4997220;28;20398;-64
2021/06/20 11:32:06;;;;;;;26.88;4.90;;;;;;;28.38;43.55;96138.16;4987961;28;20069;-60